Home > Products > Valid Products > TAF

000
FTUS43 KAPX 301100 RRA
TAFAPN
TAF
KAPN 301140Z 3012/3112 25004KT P6SM BKN070
     FM301400 25004KT P6SM SCT035 OVC140
     FM301800 21005KT P6SM VCSH BKN035 OVC120
     FM310800 30006KT 5SM -SHRA BR OVC012
     FM311100 36015G30KT 3SM -SHRASN BR OVC010=



000
FTUS43 KAPX 301100 RRA
TAFPLN
TAF
KPLN 301140Z 3012/3112 31006KT P6SM SCT020 OVC035
     FM301400 24006KT P6SM VCSH BKN020 OVC120
     FM310200 29005KT 5SM SHRA BR OVC018
     FM311000 35018G32KT 3SM -SHSN OVC010=



000
FTUS43 KAPX 301100 RRA
TAFTVC
TAF
KTVC 301140Z 3012/3112 25004KT P6SM BKN022 OVC150
     FM301600 24006KT P6SM BKN035 OVC120
     FM310100 25004KT P6SM -SHRA OVC022
     FM310500 31009KT 3SM SHRA BR OVC017
     FM311000 36015G30KT 3SM SHRASN BR OVC012=



000
FTUS43 KAPX 301000 AAA
TAFTVC
TAF AMD
KTVC 301028Z 3010/3106 25004KT P6SM BKN022 OVC150
     FM301600 24006KT P6SM BKN035 OVC120
     FM310100 25004KT P6SM -SHRA OVC022
     FM310500 31009KT 3SM SHRA BR OVC017=



000
FTUS43 KAPX 301000 AAA
TAFPLN
TAF AMD
KPLN 301028Z 3010/3106 31006KT P6SM OVC070
     FM301400 24006KT P6SM VCSH BKN028 OVC120
     FM310200 29005KT 5SM SHRA BR OVC018=



000
FTUS43 KAPX 301000 AAA
TAFAPN
TAF AMD
KAPN 301027Z 3010/3106 30006KT P6SM BKN070
     FM301400 25004KT P6SM SCT035 OVC140
     FM301800 21005KT P6SM VCSH BKN035 OVC120=



000
FTUS43 KAPX 300500
TAFTVC
TAF
KTVC 300536Z 3006/3106 32004KT P6SM VCSH SCT025 OVC035
     FM301400 26006KT 5SM -SHRA BR SCT015 OVC025
     FM310000 VRB02KT 3SM -SHRA BR OVC012=



000
FTUS43 KAPX 300500
TAFAPN
TAF
KAPN 300536Z 3006/3106 30006KT P6SM BKN025
      TEMPO 3006/3007 SCT025
     FM301800 VRB03KT 5SM -SHRA BR BKN015 OVC025
     FM310000 VRB02KT 3SM -SHRA BR OVC012=



000
FTUS43 KAPX 300500
TAFPLN
TAF
KPLN 300536Z 3006/3106 31006KT P6SM OVC025
      TEMPO 3006/3007 SCT025
     FM301400 VRB03KT 4SM -SHRA BR BKN015 OVC025
     FM310000 VRB02KT 2SM -SHRA BR OVC009=



000
FTUS43 KAPX 300300 AAA
TAFAPN
TAF AMD
KAPN 300309Z 3003/3024 30006KT P6SM OVC025
     FM301800 VRB03KT 5SM -SHRA BR BKN015 OVC025=



000
FTUS43 KAPX 300300 AAA
TAFPLN
TAF AMD
KPLN 300309Z 3003/3024 31006KT P6SM OVC025
     FM301400 VRB03KT 4SM -SHRA BR BKN015 OVC025=



000
FTUS43 KAPX 292300
TAFAPN
TAF
KAPN 292320Z 3000/3024 30004KT P6SM SCT025 OVC035
     FM301800 VRB03KT 5SM -SHRA BR SCT015 OVC025=



000
FTUS43 KAPX 292300
TAFPLN
TAF
KPLN 292320Z 3000/3024 31004KT P6SM SCT025 OVC035
     FM301400 VRB03KT 4SM -SHRA BR SCT015 OVC025=



000
FTUS43 KAPX 292300
TAFTVC
TAF
KTVC 292320Z 3000/3024 32004KT P6SM VCSH SCT025 OVC035
     FM301400 26006KT 5SM -SHRA BR SCT015 OVC025=



000
FTUS43 KAPX 291700
TAFAPN
TAF
KAPN 291738Z 2918/3018 31010G18KT P6SM VCSH BKN035
     FM292200 31008KT P6SM BKN035
     FM300100 VRB03KT P6SM BKN035
     FM301300 26005KT P6SM SCT035 BKN070=



000
FTUS43 KAPX 291700
TAFPLN
TAF
KPLN 291738Z 2918/3018 31013G22KT P6SM VCSH BKN025
     FM292200 32009KT P6SM BKN035
     FM300100 VRB03KT P6SM BKN035
     FM301300 25006KT P6SM BKN035=



000
FTUS43 KAPX 291700
TAFTVC
TAF
KTVC 291738Z 2918/3018 31010G16KT P6SM -SHRA BKN035
     FM292000 31010KT P6SM VCSH BKN035
     FM300000 32005KT P6SM VCSH BKN035
     FM300100 VRB03KT P6SM BKN035
     FM301300 25006KT P6SM BKN035=



000
FTUS43 KAPX 291100
TAFPLN
TAF
KPLN 291120Z 2912/3012 28009KT P6SM -SHRA BKN025 OVC035
     FM291400 30013G22KT P6SM -SHRA BKN025
     FM292200 32009KT P6SM BKN035=



000
FTUS43 KAPX 291100
TAFTVC
TAF
KTVC 291120Z 2912/3012 28010G16KT P6SM -SHRA BKN025 OVC035
     FM292000 31010KT P6SM -SHRA BKN035
     FM300000 32005KT P6SM VCSH BKN035=



000
FTUS43 KAPX 291100
TAFAPN
TAF
KAPN 291120Z 2912/3012 23009KT P6SM VCSH SCT025 OVC050
     FM291500 29011G21KT P6SM -SHRA OVC030
     FM292200 31008KT P6SM BKN035=



000
FTUS43 KAPX 290500
TAFPLN
TAF
KPLN 290537Z 2906/3006 25011G20KT P6SM VCSH SCT025 OVC035
     FM291200 30012G21KT P6SM -SHRA SCT025 OVC035
     FM300000 32006KT P6SM OVC040=



000
FTUS43 KAPX 290500
TAFAPN
TAF
KAPN 290537Z 2906/3006 24010KT P6SM SCT025 OVC050
     FM291500 29011G20KT P6SM OVC035
     FM300000 30006KT P6SM OVC040=



000
FTUS43 KAPX 290500
TAFTVC
TAF
KTVC 290537Z 2906/3006 25009KT P6SM VCSH SCT025 OVC050
     FM291200 30011G20KT P6SM -SHRA BKN025 OVC035
     FM300000 33005KT P6SM OVC035=



000
FTUS43 KAPX 290100 AAA
TAFPLN
TAF AMD
KPLN 290154Z 2902/2924 25011G20KT P6SM VCSH SCT025 OVC035
     FM291200 30012G21KT P6SM VCSH SCT025 OVC035=



000
FTUS43 KAPX 290100 AAA
TAFPLN
TAF AMD
KPLN 290154Z 2902/2924 25011G20KT P6SM VCSH SCT025 OVC035
     FM291200 30012G21KT P6SM VCSH SCT025 OVC035=



000
FTUS43 KAPX 282300
TAFTVC
TAF
KTVC 282320Z 2900/2924 25012G21KT P6SM VCSH SCT025 OVC050
     FM291200 30011G20KT P6SM -SHRA BKN025 OVC035=



000
FTUS43 KAPX 282300
TAFAPN
TAF
KAPN 282320Z 2900/2924 23007KT P6SM SCT025 OVC050
     FM291500 29011G20KT P6SM OVC035=



000
FTUS43 KAPX 282300
TAFPLN
TAF
KPLN 282320Z 2900/2924 24011G20KT P6SM VCSH SCT015 OVC035
      TEMPO 2900/2904 4SM SHRA BR BKN015
     FM291200 30012G21KT P6SM VCSH SCT025 OVC035=



000
FTUS43 KAPX 282100 AAA
TAFPLN
TAF AMD
KPLN 282156Z 2822/2918 25015G24KT P6SM VCSH SCT015 OVC025
     FM290000 25013KT P6SM BKN040
     FM290800 27008KT P6SM -SHRA OVC025
     FM291300 30012G18KT P6SM -SHRA OVC015=



000
FTUS43 KAPX 281700
TAFPLN
TAF
KPLN 281721Z 2818/2918 25014G23KT P6SM BKN012
     FM281900 25015G24KT P6SM SCT025
     FM290000 25013KT P6SM BKN040
     FM290800 27008KT P6SM -SHRA OVC025
     FM291300 30012G18KT P6SM -SHRA OVC015=



000
FTUS43 KAPX 281700
TAFTVC
TAF
KTVC 281721Z 2818/2918 25012G20KT P6SM BKN025
     FM281900 25013G24KT P6SM SCT025
     FM282200 26010G18KT P6SM BKN040
     FM290800 26008KT P6SM -SHRA OVC025
     FM291500 30010KT P6SM -SHRA BKN025=



000
FTUS43 KAPX 281700
TAFAPN
TAF
KAPN 281721Z 2818/2918 25014G22KT P6SM BKN040
     FM290300 24006KT P6SM SCT040
     FM290600 23006KT P6SM BKN040
     FM291500 27012KT P6SM OVC025=



000
FTUS43 KAPX 281500 AAB
TAFPLN
TAF AMD
KPLN 281501Z 2815/2912 25012G20KT P6SM OVC008
     FM281700 25014G23KT P6SM BKN015
     FM281800 25015G24KT P6SM BKN040
     FM290000 25013KT P6SM BKN040
     FM290800 27008KT P6SM -SHRA OVC025=



000
FTUS43 KAPX 281300 AAA
TAFPLN
TAF AMD
KPLN 281339Z 2814/2912 24012G20KT P6SM BKN006 OVC015
     FM281500 25012G25KT P6SM BKN040
     FM290000 25013KT P6SM BKN040
     FM290800 27008KT P6SM -SHRA OVC025=



000
FTUS43 KAPX 281100
TAFPLN
TAF
KPLN 281120Z 2812/2912 24012G20KT P6SM OVC025
      TEMPO 2812/2813 3SM BR BKN005 OVC015
     FM281500 25012G25KT P6SM BKN040
     FM290000 25013KT P6SM BKN040
     FM290800 27008KT P6SM -SHRA OVC025=



000
FTUS43 KAPX 281100
TAFTVC
TAF
KTVC 281120Z 2812/2912 24010G20KT P6SM OVC025
      TEMPO 2812/2813 BKN007 OVC015
     FM281400 24012G24KT P6SM SCT050 BKN100
     FM281700 25013G24KT P6SM SCT050
     FM290100 25010G18KT P6SM BKN040
     FM290800 26008KT P6SM -SHRA OVC025=



000
FTUS43 KAPX 281100
TAFAPN
TAF
KAPN 281120Z 2812/2912 19010KT P6SM OVC040
     FM281330 24012G21KT P6SM VCSH OVC028
      TEMPO 2814/2815 6SM BR BKN012 OVC020
     FM281800 25013G24KT P6SM BKN050
     FM290300 24006KT P6SM SCT040
     FM290600 23006KT P6SM BKN040
     FM291000 23006KT P6SM OVC025=



000
FTUS43 KAPX 281000 AAC
TAFTVC
TAF AMD
KTVC 281001Z 2810/2906 23010G16KT P6SM OVC060
      TEMPO 2810/2813 BKN007 OVC022
     FM281500 24012G24KT P6SM BKN150
     FM281700 25013G24KT P6SM SKC
     FM290100 25010G18KT P6SM BKN040=



000
FTUS43 KAPX 280900 AAA
TAFAPN
TAF AMD
KAPN 280933Z 2810/2906 17007KT P6SM OVC050
     FM281100 19010KT P6SM VCSH OVC040
     FM281300 24012G21KT P6SM VCSH OVC028
     FM281800 25013G24KT P6SM BKN160
     FM282000 24015G26KT P6SM SKC
     FM290300 24011KT P6SM SCT040=



000
FTUS43 KAPX 280900 AAB
TAFPLN
TAF AMD
KPLN 280923Z 2809/2906 12006KT P6SM VCSH OVC060
      TEMPO 2809/2811 6SM SHRA BKN028
     FM281200 24011G18KT P6SM OVC022
     FM281500 25012G25KT P6SM BKN040
     FM281900 25013G26KT P6SM SCT040
     FM290000 25013KT P6SM BKN040=



000
FTUS43 KAPX 280900 AAB
TAFTVC
TAF AMD
KTVC 280922Z 2809/2906 20006KT P6SM VCSH OVC070
     FM281000 23010G16KT P6SM OVC060
      TEMPO 2810/2813 OVC028
     FM281500 24012G24KT P6SM BKN150
     FM281700 25013G24KT P6SM SKC
     FM290100 25010G18KT P6SM BKN040=



000
FTUS43 KAPX 280800 AAA
TAFTVC
TAF AMD
KTVC 280801Z 2808/2906 20006KT P6SM VCSH OVC070
     FM281200 23010G16KT P6SM OVC060
      TEMPO 2812/2814 OVC028
     FM281500 24012G24KT P6SM BKN150
     FM281700 25013G24KT P6SM SKC
     FM290100 25010G18KT P6SM BKN040=



000
FTUS43 KAPX 280800 AAA
TAFTVC
TAF AMD
KTVC 280801Z 2808/2906 20006KT P6SM VCSH OVC070
     FM281200 23010G16KT P6SM OVC060
      TEMPO 2812/2814 OVC028
     FM281500 24012G24KT P6SM BKN150
     FM281700 25013G24KT P6SM SKC
     FM290100 25010G18KT P6SM BKN040=



000
FTUS43 KAPX 280700 AAA
TAFPLN
TAF AMD
KPLN 280759Z 2808/2906 12006KT P6SM VCSH OVC060
      TEMPO 2808/2811 6SM SHRA BKN040
     FM281300 24011G18KT P6SM OVC022
     FM281600 25012G25KT P6SM BKN040
     FM281900 25013G26KT P6SM SCT040
     FM290000 25013KT P6SM BKN040=



000
FTUS43 KAPX 280500
TAFTVC
TAF
KTVC 280520Z 2806/2906 16006KT P6SM VCSH OVC050 WS020/20030KT
     FM281000 20008KT P6SM SHRA VCTS OVC040CB
     FM281200 22010G16KT P6SM OVC020
     FM281500 24012G24KT P6SM SKC
     FM290100 25010G18KT P6SM BKN040=



000
FTUS43 KAPX 280500
TAFAPN
TAF
KAPN 280520Z 2806/2906 10007KT P6SM VCSH OVC050
     FM281100 18007KT P6SM SHRA VCTS OVC040CB
     FM281500 24012G21KT P6SM VCSH OVC015
     FM281800 25013G24KT P6SM BKN160
     FM282000 24015G26KT P6SM SKC
     FM290300 24011KT P6SM SCT040=



000
FTUS43 KAPX 280500
TAFPLN
TAF
KPLN 280520Z 2806/2906 11006KT P6SM VCSH OVC040
     FM280900 15006KT P6SM SHRA VCTS OVC040CB
     FM281300 24011G18KT P6SM VCSH BKN009 OVC015
     FM281600 25012G25KT P6SM BKN040
     FM281900 25013G26KT P6SM SCT040
     FM290000 25013KT P6SM BKN040=



000
FTUS43 KAPX 280200 AAA
TAFPLN
TAF AMD
KPLN 280243Z 2803/2824 11006KT 6SM -SHRA BKN008 OVC025
      WS020/17030KT
     FM280800 12005KT 6SM -SHRA OVC015 WS020/20030KT
     FM281600 24013G23KT P6SM OVC035=



000
FTUS43 KAPX 272300
TAFPLN
TAF
KPLN 272320Z 2800/2824 11006KT P6SM OVC030 WS020/17030KT
     FM280800 11005KT 6SM -SHRA OVC015 WS020/20030KT
     FM281600 24013G23KT P6SM OVC035=



000
FTUS43 KAPX 272300
TAFAPN
TAF
KAPN 272320Z 2800/2824 14008KT P6SM OVC035 WS020/18030KT
     FM280900 15006KT 4SM -SHRA BR OVC015 WS020/18030KT
     FM281600 24011G21KT P6SM OVC035=



000
FTUS43 KAPX 272300
TAFTVC
TAF
KTVC 272320Z 2800/2824 09005KT P6SM OVC035
     FM280800 18006KT 6SM -SHRA OVC022 WS020/20030KT
     FM281400 24011G21KT P6SM OVC035=



000
FTUS43 KAPX 272200 AAA
TAFTVC
TAF AMD
KTVC 272219Z 2722/2818 11007KT P6SM OVC035
     FM280300 09004KT P6SM OVC025
     FM280800 18006KT 6SM -SHRA OVC022=



000
FTUS43 KAPX 272100 AAA
TAFPLN
TAF AMD
KPLN 272112Z 2721/2818 13011G20KT P6SM -SHRA SCT015 OVC035
      TEMPO 2721/2724 4SM TSRA BKN015CB
     FM280200 11006KT P6SM OVC040 WS020/17030KT
     FM280800 12005KT 6SM -SHRA OVC015 WS020/20030KT=



000
FTUS43 KAPX 271700
TAFPLN
TAF
KPLN 271740Z 2718/2818 13013G25KT P6SM SCT008 OVC045
     FM280200 11006KT P6SM OVC040 WS020/17030KT
     FM280800 12005KT 6SM -SHRA OVC015 WS020/20030KT=



000
FTUS43 KAPX 271700
TAFAPN
TAF
KAPN 271740Z 2718/2818 11011KT 1 1/2SM TSRA BKN012 OVC050CB
     FM272000 12012G20KT P6SM OVC035
     FM280000 14007KT P6SM OVC040 WS020/18030KT
     FM280900 15005KT 4SM -SHRA BR OVC015 WS020/18030KT=



000
FTUS43 KAPX 271700
TAFTVC
TAF
KTVC 271740Z 2718/2818 08006KT P6SM BKN050 WS015/18030KT
     FM272000 12008KT P6SM SCT050
     FM272200 11007KT P6SM BKN028
     FM280300 09004KT P6SM OVC025
     FM280800 18006KT 6SM -SHRA OVC022=



000
FTUS43 KAPX 271500 AAC
TAFTVC
TAF AMD
KTVC 271555Z 2716/2812 07006KT 1SM +TSRA BR OVC035CB WS020/20025KT
     FM271645 10008KT 6SM -SHRA OVC035 WS020/20025KT
     FM271800 11010KT P6SM OVC040 WS020/20030KT
     FM280000 13004KT 6SM BR OVC035 WS020/18030KT
     FM280700 19005KT 6SM -SHRA OVC015 WS020/20030KT=



000
FTUS43 KAPX 271500 AAC
TAFTVC
TAF AMD
KTVC 271555Z 2716/2812 07006KT 1SM +TSRA BR OVC035CB WS020/20025KT
     FM271645 10008KT 6SM -SHRA OVC035 WS020/20025KT
     FM271800 11010KT P6SM OVC040 WS020/20030KT
     FM280000 13004KT 6SM BR OVC035 WS020/18030KT
     FM280700 19005KT 6SM -SHRA OVC015 WS020/20030KT=



000
FTUS43 KAPX 271500 AAB
TAFAPN
TAF AMD
KAPN 271544Z 2716/2812 11008KT 5SM -SHRA OVC013
      TEMPO 2717/2719 2SM TSRA OVC035CB
     FM272000 12012G20KT P6SM OVC035
     FM280000 14007KT P6SM OVC040 WS020/18030KT
     FM280900 15005KT 4SM -SHRA BR OVC015 WS020/18030KT=



000
FTUS43 KAPX 271500 AAB
TAFAPN
TAF AMD
KAPN 271544Z 2716/2812 11008KT 5SM -SHRA OVC013
      TEMPO 2717/2719 2SM TSRA OVC035CB
     FM272000 12012G20KT P6SM OVC035
     FM280000 14007KT P6SM OVC040 WS020/18030KT
     FM280900 15005KT 4SM -SHRA BR OVC015 WS020/18030KT=



000
FTUS43 KAPX 271500 AAB
TAFTVC
TAF AMD
KTVC 271541Z 2716/2812 04008KT 6SM -TSRA BKN035CB OVC060
      WS020/20025KT
     FM271800 11010KT P6SM OVC040
     FM280000 13004KT 6SM BR OVC035 WS020/18030KT
     FM280700 19005KT 6SM -SHRA OVC015 WS020/20030KT=



000
FTUS43 KAPX 271500 AAB
TAFTVC
TAF AMD
KTVC 271541Z 2716/2812 04008KT 6SM -TSRA BKN035CB OVC060
      WS020/20025KT
     FM271800 11010KT P6SM OVC040
     FM280000 13004KT 6SM BR OVC035 WS020/18030KT
     FM280700 19005KT 6SM -SHRA OVC015 WS020/20030KT=



000
FTUS43 KAPX 271400 AAB
TAFPLN
TAF AMD
KPLN 271403Z 2714/2812 12010KT 6SM -SHRA OVC070
      TEMPO 2715/2717 2SM TSRA SCT025 OVC040CB
     FM280200 11006KT P6SM OVC040 WS020/17030KT
     FM280700 12005KT 6SM -SHRA OVC015 WS020/20030KT=



000
FTUS43 KAPX 271400 AAA
TAFAPN
TAF AMD
KAPN 271401Z 2714/2812 08005KT 6SM -SHRA SCT050 OVC100
     FM271600 12010KT 6SM -SHRA OVC050
      TEMPO 2716/2718 2SM TSRA OVC035CB
     FM271900 12012G20KT P6SM OVC040
     FM280000 14007KT P6SM OVC040 WS020/18030KT
     FM280900 15005KT 4SM -SHRA BR OVC015 WS020/18030KT=



000
FTUS43 KAPX 271300 AAA
TAFTVC
TAF AMD
KTVC 271357Z 2714/2812 14009KT P6SM VCTS BKN040CB OVC200
     FM271500 12011KT P6SM OVC045 WS020/20025KT
     FM280000 13004KT 6SM BR OVC035 WS020/18030KT
     FM280700 19005KT 6SM -SHRA OVC015 WS020/20030KT=



    US Dept of Commerce
    National Oceanic and Atmospheric Administration
    National Weather Service
    1325 East West Highway
    Silver Spring, MD 20910
    Page Author: NWS Internet Services Team
Disclaimer
Information Quality
Credits
Glossary
Privacy Policy
Freedom of Information Act (FOIA)
About Us
Career Opportunities